sensor_id;sensor_type;location;lat;lon;timestamp;noise_LAeq;noise_LA_min;noise_LA_max;noise_LA01;noise_LA95
71016;Laerm;60940;52.046;5.340;2023-07-02T00:00:01;40.70;30.75;60.68;;
71016;Laerm;60940;52.046;5.340;2023-07-02T00:00:14;40.60;30.96;59.53;;
71016;Laerm;60940;52.046;5.340;2023-07-02T00:00:24;39.57;31.33;56.42;;
71016;Laerm;60940;52.046;5.340;2023-07-02T00:00:35;38.72;31.10;53.31;;
71016;Laerm;60940;52.046;5.340;2023-07-02T00:00:48;39.72;31.94;54.63;;
71016;Laerm;60940;52.046;5.340;2023-07-02T00:01:01;38.44;31.42;49.16;;
71016;Laerm;60940;52.046;5.340;2023-07-02T00:01:11;37.35;30.64;47.66;;
71016;Laerm;60940;52.046;5.340;2023-07-02T00:01:21;38.98;31.00;49.82;;
71016;Laerm;60940;52.046;5.340;2023-07-02T00:01:32;41.20;31.55;58.31;;
71016;Laerm;60940;52.046;5.340;2023-07-02T00:01:42;39.74;31.68;54.44;;
71016;Laerm;60940;52.046;5.340;2023-07-02T00:01:52;38.36;30.61;51.52;;
71016;Laerm;60940;52.046;5.340;2023-07-02T00:02:02;40.24;31.22;60.82;;
71016;Laerm;60940;52.046;5.340;2023-07-02T00:02:12;39.17;30.35;54.86;;
71016;Laerm;60940;52.046;5.340;2023-07-02T00:02:23;38.58;31.72;50.70;;
71016;Laerm;60940;52.046;5.340;2023-07-02T00:02:33;39.58;32.12;53.45;;
71016;Laerm;60940;52.046;5.340;2023-07-02T00:02:43;37.45;30.28;50.81;;
71016;Laerm;60940;52.046;5.340;2023-07-02T00:02:54;36.67;30.26;48.84;;
71016;Laerm;60940;52.046;5.340;2023-07-02T00:03:04;37.20;30.14;49.44;;
71016;Laerm;60940;52.046;5.340;2023-07-02T00:03:14;39.61;30.06;57.64;;
71016;Laerm;60940;52.046;5.340;2023-07-02T00:03:24;39.89;30.57;57.77;;
71016;Laerm;60940;52.046;5.340;2023-07-02T00:03:34;40.02;31.24;59.56;;
71016;Laerm;60940;52.046;5.340;2023-07-02T00:03:45;38.65;30.68;57.07;;
71016;Laerm;60940;52.046;5.340;2023-07-02T00:03:55;37.42;31.17;48.72;;
71016;Laerm;60940;52.046;5.340;2023-07-02T00:04:05;39.55;32.00;54.92;;
71016;Laerm;60940;52.046;5.340;2023-07-02T00:04:18;37.78;31.93;48.17;;
71016;Laerm;60940;52.046;5.340;2023-07-02T00:04:29;39.01;31.76;52.79;;
71016;Laerm;60940;52.046;5.340;2023-07-02T00:04:39;37.62;31.29;51.22;;
71016;Laerm;60940;52.046;5.340;2023-07-02T00:04:49;39.07;31.30;51.59;;
71016;Laerm;60940;52.046;5.340;2023-07-02T00:05:00;38.47;31.79;51.29;;
71016;Laerm;60940;52.046;5.340;2023-07-02T00:05:10;37.97;31.50;51.71;;
71016;Laerm;60940;52.046;5.340;2023-07-02T00:05:20;38.32;31.83;47.84;;
71016;Laerm;60940;52.046;5.340;2023-07-02T00:05:30;39.53;31.85;58.53;;
71016;Laerm;60940;52.046;5.340;2023-07-02T00:05:41;37.33;31.98;47.97;;
71016;Laerm;60940;52.046;5.340;2023-07-02T00:05:51;37.20;30.57;50.98;;
71016;Laerm;60940;52.046;5.340;2023-07-02T00:06:04;36.42;30.49;49.71;;
71016;Laerm;60940;52.046;5.340;2023-07-02T00:06:14;37.34;30.42;50.17;;
71016;Laerm;60940;52.046;5.340;2023-07-02T00:06:27;39.94;30.02;59.48;;
71016;Laerm;60940;52.046;5.340;2023-07-02T00:06:37;35.87;29.76;48.28;;
71016;Laerm;60940;52.046;5.340;2023-07-02T00:06:50;36.47;30.21;50.34;;
71016;Laerm;60940;52.046;5.340;2023-07-02T00:07:01;38.43;30.31;52.46;;
71016;Laerm;60940;52.046;5.340;2023-07-02T00:07:11;37.55;30.49;55.21;;
71016;Laerm;60940;52.046;5.340;2023-07-02T00:07:21;39.40;31.18;57.57;;
71016;Laerm;60940;52.046;5.340;2023-07-02T00:07:31;39.68;31.58;58.01;;
71016;Laerm;60940;52.046;5.340;2023-07-02T00:07:42;43.11;30.64;66.60;;
71016;Laerm;60940;52.046;5.340;2023-07-02T00:07:53;37.14;30.62;49.94;;
71016;Laerm;60940;52.046;5.340;2023-07-02T00:08:03;41.60;29.95;62.82;;
71016;Laerm;60940;52.046;5.340;2023-07-02T00:08:13;35.61;29.95;45.95;;
71016;Laerm;60940;52.046;5.340;2023-07-02T00:08:23;36.27;30.02;48.99;;
71016;Laerm;60940;52.046;5.340;2023-07-02T00:08:33;37.46;31.15;51.05;;
71016;Laerm;60940;52.046;5.340;2023-07-02T00:08:44;40.90;31.50;62.24;;
71016;Laerm;60940;52.046;5.340;2023-07-02T00:08:54;37.41;30.80;52.15;;
71016;Laerm;60940;52.046;5.340;2023-07-02T00:09:04;37.60;30.42;52.90;;
71016;Laerm;60940;52.046;5.340;2023-07-02T00:09:14;38.44;29.95;54.57;;
71016;Laerm;60940;52.046;5.340;2023-07-02T00:09:25;35.51;29.80;48.92;;
71016;Laerm;60940;52.046;5.340;2023-07-02T00:09:35;36.10;29.69;48.92;;
71016;Laerm;60940;52.046;5.340;2023-07-02T00:09:45;35.87;30.09;48.63;;
71016;Laerm;60940;52.046;5.340;2023-07-02T00:09:56;36.27;30.20;46.11;;
71016;Laerm;60940;52.046;5.340;2023-07-02T00:10:06;36.08;31.00;46.43;;
71016;Laerm;60940;52.046;5.340;2023-07-02T00:10:16;39.74;30.57;60.22;;
71016;Laerm;60940;52.046;5.340;2023-07-02T00:10:26;35.76;30.67;46.82;;
71016;Laerm;60940;52.046;5.340;2023-07-02T00:10:36;38.04;31.18;52.07;;
71016;Laerm;60940;52.046;5.340;2023-07-02T00:10:47;38.96;30.94;55.48;;
71016;Laerm;60940;52.046;5.340;2023-07-02T00:10:57;35.96;31.55;45.31;;
71016;Laerm;60940;52.046;5.340;2023-07-02T00:11:07;37.09;30.86;49.80;;
71016;Laerm;60940;52.046;5.340;2023-07-02T00:11:22;36.84;30.96;49.12;;
71016;Laerm;60940;52.046;5.340;2023-07-02T00:11:32;37.09;31.20;50.21;;
71016;Laerm;60940;52.046;5.340;2023-07-02T00:11:44;38.71;30.47;56.02;;
71016;Laerm;60940;52.046;5.340;2023-07-02T00:11:55;36.23;30.20;47.66;;
71016;Laerm;60940;52.046;5.340;2023-07-02T00:12:06;36.77;30.77;49.86;;
71016;Laerm;60940;52.046;5.340;2023-07-02T00:12:16;37.60;31.21;49.25;;
71016;Laerm;60940;52.046;5.340;2023-07-02T00:12:26;38.87;31.07;56.83;;
71016;Laerm;60940;52.046;5.340;2023-07-02T00:12:36;37.78;30.86;49.77;;
71016;Laerm;60940;52.046;5.340;2023-07-02T00:12:47;36.89;32.36;49.10;;
71016;Laerm;60940;52.046;5.340;2023-07-02T00:12:57;38.79;32.89;52.26;;
71016;Laerm;60940;52.046;5.340;2023-07-02T00:13:07;39.59;33.38;51.28;;
71016;Laerm;60940;52.046;5.340;2023-07-02T00:13:17;41.87;34.28;53.40;;
71016;Laerm;60940;52.046;5.340;2023-07-02T00:13:28;42.22;35.43;58.92;;
71016;Laerm;60940;52.046;5.340;2023-07-02T00:13:38;40.62;32.69;51.76;;
71016;Laerm;60940;52.046;5.340;2023-07-02T00:13:48;36.20;30.34;46.33;;
71016;Laerm;60940;52.046;5.340;2023-07-02T00:13:59;34.72;29.81;46.41;;
71016;Laerm;60940;52.046;5.340;2023-07-02T00:14:09;36.34;29.83;53.96;;
71016;Laerm;60940;52.046;5.340;2023-07-02T00:14:20;42.87;30.41;66.69;;
71016;Laerm;60940;52.046;5.340;2023-07-02T00:14:30;34.98;30.12;48.16;;
71016;Laerm;60940;52.046;5.340;2023-07-02T00:14:40;34.48;30.67;44.46;;
71016;Laerm;60940;52.046;5.340;2023-07-02T00:14:50;35.40;30.18;48.55;;
71016;Laerm;60940;52.046;5.340;2023-07-02T00:15:03;35.46;30.55;49.73;;
71016;Laerm;60940;52.046;5.340;2023-07-02T00:15:13;36.42;30.71;51.36;;
71016;Laerm;60940;52.046;5.340;2023-07-02T00:15:23;42.45;33.44;58.32;;
71016;Laerm;60940;52.046;5.340;2023-07-02T00:15:34;39.48;31.89;54.72;;
71016;Laerm;60940;52.046;5.340;2023-07-02T00:15:44;38.59;32.27;53.88;;
71016;Laerm;60940;52.046;5.340;2023-07-02T00:15:54;35.43;30.96;48.64;;
71016;Laerm;60940;52.046;5.340;2023-07-02T00:16:04;34.58;30.45;47.39;;
71016;Laerm;60940;52.046;5.340;2023-07-02T00:16:15;33.06;29.63;45.74;;
71016;Laerm;60940;52.046;5.340;2023-07-02T00:16:25;33.99;29.40;51.68;;
71016;Laerm;60940;52.046;5.340;2023-07-02T00:16:39;34.88;29.01;53.65;;
71016;Laerm;60940;52.046;5.340;2023-07-02T00:16:50;33.92;28.79;48.20;;
71016;Laerm;60940;52.046;5.340;2023-07-02T00:17:00;35.06;28.64;53.65;;
71016;Laerm;60940;52.046;5.340;2023-07-02T00:17:10;32.72;29.14;42.23;;
71016;Laerm;60940;52.046;5.340;2023-07-02T00:17:23;34.33;29.31;47.29;;
71016;Laerm;60940;52.046;5.340;2023-07-02T00:17:34;34.02;28.72;47.44;;
71016;Laerm;60940;52.046;5.340;2023-07-02T00:17:44;33.98;28.92;45.98;;
71016;Laerm;60940;52.046;5.340;2023-07-02T00:17:54;33.33;28.86;46.70;;
71016;Laerm;60940;52.046;5.340;2023-07-02T00:18:07;33.92;28.72;44.71;;
71016;Laerm;60940;52.046;5.340;2023-07-02T00:18:17;35.60;29.05;53.94;;
71016;Laerm;60940;52.046;5.340;2023-07-02T00:18:27;35.04;28.65;53.39;;
71016;Laerm;60940;52.046;5.340;2023-07-02T00:18:43;35.77;28.63;55.35;;
71016;Laerm;60940;52.046;5.340;2023-07-02T00:18:53;32.94;29.39;43.61;;
71016;Laerm;60940;52.046;5.340;2023-07-02T00:19:04;32.91;29.17;45.94;;
71016;Laerm;60940;52.046;5.340;2023-07-02T00:19:14;33.53;29.22;47.46;;
71016;Laerm;60940;52.046;5.340;2023-07-02T00:19:25;35.23;29.11;52.01;;
71016;Laerm;60940;52.046;5.340;2023-07-02T00:19:35;34.90;28.61;51.49;;
71016;Laerm;60940;52.046;5.340;2023-07-02T00:19:46;33.15;28.95;49.80;;
71016;Laerm;60940;52.046;5.340;2023-07-02T00:19:57;34.03;28.68;47.19;;
71016;Laerm;60940;52.046;5.340;2023-07-02T00:20:07;34.59;28.99;50.47;;
71016;Laerm;60940;52.046;5.340;2023-07-02T00:20:18;35.29;28.57;53.35;;
71016;Laerm;60940;52.046;5.340;2023-07-02T00:20:29;38.03;29.08;56.93;;
71016;Laerm;60940;52.046;5.340;2023-07-02T00:20:40;36.27;29.38;45.31;;
71016;Laerm;60940;52.046;5.340;2023-07-02T00:20:51;33.40;28.84;48.91;;
71016;Laerm;60940;52.046;5.340;2023-07-02T00:21:02;33.74;29.17;51.06;;
71016;Laerm;60940;52.046;5.340;2023-07-02T00:21:12;35.51;29.48;55.63;;
71016;Laerm;60940;52.046;5.340;2023-07-02T00:21:23;33.19;28.67;46.41;;
71016;Laerm;60940;52.046;5.340;2023-07-02T00:21:38;33.29;28.80;47.99;;
71016;Laerm;60940;52.046;5.340;2023-07-02T00:21:49;34.24;29.19;47.77;;
71016;Laerm;60940;52.046;5.340;2023-07-02T00:21:59;36.93;29.40;58.19;;
71016;Laerm;60940;52.046;5.340;2023-07-02T00:22:09;34.66;29.29;52.75;;
71016;Laerm;60940;52.046;5.340;2023-07-02T00:22:20;33.57;28.98;49.62;;
71016;Laerm;60940;52.046;5.340;2023-07-02T00:22:30;32.73;29.19;43.22;;
71016;Laerm;60940;52.046;5.340;2023-07-02T00:22:41;33.78;29.33;49.18;;
71016;Laerm;60940;52.046;5.340;2023-07-02T00:22:55;35.10;29.58;52.76;;
71016;Laerm;60940;52.046;5.340;2023-07-02T00:23:06;35.65;29.79;50.84;;
71016;Laerm;60940;52.046;5.340;2023-07-02T00:23:18;33.61;29.48;47.34;;
71016;Laerm;60940;52.046;5.340;2023-07-02T00:23:30;33.78;29.70;48.02;;
71016;Laerm;60940;52.046;5.340;2023-07-02T00:23:40;36.12;29.45;55.83;;
71016;Laerm;60940;52.046;5.340;2023-07-02T00:23:50;33.61;29.64;45.46;;
71016;Laerm;60940;52.046;5.340;2023-07-02T00:24:01;35.13;29.56;46.35;;
71016;Laerm;60940;52.046;5.340;2023-07-02T00:24:11;33.65;29.21;43.56;;
71016;Laerm;60940;52.046;5.340;2023-07-02T00:24:22;32.44;29.40;44.71;;
71016;Laerm;60940;52.046;5.340;2023-07-02T00:24:32;32.64;29.77;45.08;;
71016;Laerm;60940;52.046;5.340;2023-07-02T00:24:42;32.42;29.77;44.04;;
71016;Laerm;60940;52.046;5.340;2023-07-02T00:24:52;33.32;29.87;47.19;;
71016;Laerm;60940;52.046;5.340;2023-07-02T00:25:05;33.47;29.19;46.50;;
71016;Laerm;60940;52.046;5.340;2023-07-02T00:25:16;35.19;29.11;49.92;;
71016;Laerm;60940;52.046;5.340;2023-07-02T00:25:26;32.39;29.67;46.10;;
71016;Laerm;60940;52.046;5.340;2023-07-02T00:25:36;33.43;30.05;46.08;;
71016;Laerm;60940;52.046;5.340;2023-07-02T00:25:47;33.39;29.09;49.84;;
71016;Laerm;60940;52.046;5.340;2023-07-02T00:25:58;32.65;29.07;45.11;;
71016;Laerm;60940;52.046;5.340;2023-07-02T00:26:08;33.17;28.27;46.41;;
71016;Laerm;60940;52.046;5.340;2023-07-02T00:26:19;35.06;28.21;51.55;;
71016;Laerm;60940;52.046;5.340;2023-07-02T00:26:29;34.02;29.09;46.52;;
71016;Laerm;60940;52.046;5.340;2023-07-02T00:26:39;33.40;29.76;44.15;;
71016;Laerm;60940;52.046;5.340;2023-07-02T00:26:51;32.74;29.06;44.39;;
71016;Laerm;60940;52.046;5.340;2023-07-02T00:27:01;34.70;28.97;54.95;;
71016;Laerm;60940;52.046;5.340;2023-07-02T00:27:11;32.50;29.04;46.87;;
71016;Laerm;60940;52.046;5.340;2023-07-02T00:27:21;32.05;28.55;43.33;;
71016;Laerm;60940;52.046;5.340;2023-07-02T00:27:32;32.80;28.52;48.96;;
71016;Laerm;60940;52.046;5.340;2023-07-02T00:27:42;31.82;28.84;42.21;;
71016;Laerm;60940;52.046;5.340;2023-07-02T00:27:52;32.81;28.83;46.49;;
71016;Laerm;60940;52.046;5.340;2023-07-02T00:28:04;32.72;28.90;44.97;;
71016;Laerm;60940;52.046;5.340;2023-07-02T00:28:14;32.53;28.76;46.83;;
71016;Laerm;60940;52.046;5.340;2023-07-02T00:28:24;33.23;28.90;45.46;;
71016;Laerm;60940;52.046;5.340;2023-07-02T00:28:34;32.17;28.50;46.48;;
71016;Laerm;60940;52.046;5.340;2023-07-02T00:28:44;33.45;28.24;51.27;;
71016;Laerm;60940;52.046;5.340;2023-07-02T00:28:55;33.56;28.20;48.66;;
71016;Laerm;60940;52.046;5.340;2023-07-02T00:29:05;33.27;28.20;49.48;;
71016;Laerm;60940;52.046;5.340;2023-07-02T00:29:16;32.07;28.21;45.96;;
71016;Laerm;60940;52.046;5.340;2023-07-02T00:29:26;31.60;27.78;47.02;;
71016;Laerm;60940;52.046;5.340;2023-07-02T00:29:36;33.72;28.24;46.30;;
71016;Laerm;60940;52.046;5.340;2023-07-02T00:29:46;32.08;27.77;44.69;;
71016;Laerm;60940;52.046;5.340;2023-07-02T00:29:56;33.81;28.20;51.34;;
71016;Laerm;60940;52.046;5.340;2023-07-02T00:30:07;34.71;28.34;51.85;;
71016;Laerm;60940;52.046;5.340;2023-07-02T00:30:17;32.73;28.31;48.87;;
71016;Laerm;60940;52.046;5.340;2023-07-02T00:30:27;33.70;28.53;53.75;;
71016;Laerm;60940;52.046;5.340;2023-07-02T00:30:38;32.41;28.38;45.13;;
71016;Laerm;60940;52.046;5.340;2023-07-02T00:30:48;32.63;28.89;46.71;;
71016;Laerm;60940;52.046;5.340;2023-07-02T00:30:58;33.27;28.69;48.02;;
71016;Laerm;60940;52.046;5.340;2023-07-02T00:31:08;32.67;28.63;42.73;;
71016;Laerm;60940;52.046;5.340;2023-07-02T00:31:18;33.21;28.70;47.62;;
71016;Laerm;60940;52.046;5.340;2023-07-02T00:31:29;33.70;28.63;51.98;;
71016;Laerm;60940;52.046;5.340;2023-07-02T00:31:39;31.09;28.62;41.48;;
71016;Laerm;60940;52.046;5.340;2023-07-02T00:31:49;37.26;29.17;58.17;;
71016;Laerm;60940;52.046;5.340;2023-07-02T00:31:59;33.04;29.25;45.63;;
71016;Laerm;60940;52.046;5.340;2023-07-02T00:32:10;32.35;29.76;41.96;;
71016;Laerm;60940;52.046;5.340;2023-07-02T00:32:20;37.19;29.63;59.56;;
71016;Laerm;60940;52.046;5.340;2023-07-02T00:32:30;33.36;29.67;50.02;;
71016;Laerm;60940;52.046;5.340;2023-07-02T00:32:40;34.13;30.68;46.44;;
71016;Laerm;60940;52.046;5.340;2023-07-02T00:32:50;35.05;31.75;46.23;;
71016;Laerm;60940;52.046;5.340;2023-07-02T00:33:01;33.55;29.99;43.20;;
71016;Laerm;60940;52.046;5.340;2023-07-02T00:33:11;37.05;28.54;57.63;;
71016;Laerm;60940;52.046;5.340;2023-07-02T00:33:21;31.55;29.11;40.52;;
71016;Laerm;60940;52.046;5.340;2023-07-02T00:33:31;32.22;29.63;42.13;;
71016;Laerm;60940;52.046;5.340;2023-07-02T00:33:41;34.16;29.38;49.09;;
71016;Laerm;60940;52.046;5.340;2023-07-02T00:33:52;35.11;29.46;55.30;;
71016;Laerm;60940;52.046;5.340;2023-07-02T00:34:02;32.74;28.88;43.22;;
71016;Laerm;60940;52.046;5.340;2023-07-02T00:34:12;38.31;28.74;61.71;;
71016;Laerm;60940;52.046;5.340;2023-07-02T00:34:23;31.95;28.28;43.57;;
71016;Laerm;60940;52.046;5.340;2023-07-02T00:34:33;31.24;27.61;46.32;;
71016;Laerm;60940;52.046;5.340;2023-07-02T00:34:43;32.82;28.15;45.63;;
71016;Laerm;60940;52.046;5.340;2023-07-02T00:34:53;31.50;27.86;44.14;;
71016;Laerm;60940;52.046;5.340;2023-07-02T00:35:04;36.00;28.30;56.33;;
71016;Laerm;60940;52.046;5.340;2023-07-02T00:35:14;31.40;28.98;43.78;;
71016;Laerm;60940;52.046;5.340;2023-07-02T00:35:24;31.43;28.32;44.09;;
71016;Laerm;60940;52.046;5.340;2023-07-02T00:35:34;31.11;28.52;42.74;;
71016;Laerm;60940;52.046;5.340;2023-07-02T00:35:44;32.44;28.14;47.60;;
71016;Laerm;60940;52.046;5.340;2023-07-02T00:35:55;31.10;28.58;45.58;;
71016;Laerm;60940;52.046;5.340;2023-07-02T00:36:10;32.44;28.34;46.10;;
71016;Laerm;60940;52.046;5.340;2023-07-02T00:36:27;31.96;28.36;46.70;;
71016;Laerm;60940;52.046;5.340;2023-07-02T00:36:37;32.14;28.79;47.03;;
71016;Laerm;60940;52.046;5.340;2023-07-02T00:36:47;47.76;29.25;66.45;;
71016;Laerm;60940;52.046;5.340;2023-07-02T00:36:58;33.44;29.04;49.28;;
71016;Laerm;60940;52.046;5.340;2023-07-02T00:37:08;32.68;28.89;46.95;;
71016;Laerm;60940;52.046;5.340;2023-07-02T00:37:18;30.63;28.55;41.35;;
71016;Laerm;60940;52.046;5.340;2023-07-02T00:37:28;38.93;28.43;61.60;;
71016;Laerm;60940;52.046;5.340;2023-07-02T00:37:38;31.04;28.33;41.38;;
71016;Laerm;60940;52.046;5.340;2023-07-02T00:37:49;31.59;28.10;43.20;;
71016;Laerm;60940;52.046;5.340;2023-07-02T00:37:59;32.24;28.21;47.28;;
71016;Laerm;60940;52.046;5.340;2023-07-02T00:38:09;31.36;28.42;42.00;;
71016;Laerm;60940;52.046;5.340;2023-07-02T00:38:19;32.44;28.62;47.28;;
71016;Laerm;60940;52.046;5.340;2023-07-02T00:38:30;32.69;28.59;48.58;;
71016;Laerm;60940;52.046;5.340;2023-07-02T00:38:40;32.39;29.05;43.10;;
71016;Laerm;60940;52.046;5.340;2023-07-02T00:38:51;34.22;29.12;52.74;;
71016;Laerm;60940;52.046;5.340;2023-07-02T00:39:01;31.35;28.72;43.54;;
71016;Laerm;60940;52.046;5.340;2023-07-02T00:39:11;32.22;28.62;45.73;;
71016;Laerm;60940;52.046;5.340;2023-07-02T00:39:22;33.45;28.49;51.62;;
71016;Laerm;60940;52.046;5.340;2023-07-02T00:39:32;31.23;28.68;41.15;;
71016;Laerm;60940;52.046;5.340;2023-07-02T00:39:42;31.13;28.58;42.96;;
71016;Laerm;60940;52.046;5.340;2023-07-02T00:39:52;31.69;28.57;43.29;;
71016;Laerm;60940;52.046;5.340;2023-07-02T00:40:03;30.70;28.36;39.22;;
71016;Laerm;60940;52.046;5.340;2023-07-02T00:40:13;32.23;28.61;46.20;;
71016;Laerm;60940;52.046;5.340;2023-07-02T00:40:23;33.05;28.60;47.18;;
71016;Laerm;60940;52.046;5.340;2023-07-02T00:40:33;31.41;28.72;40.55;;
71016;Laerm;60940;52.046;5.340;2023-07-02T00:40:43;33.10;28.56;51.72;;
71016;Laerm;60940;52.046;5.340;2023-07-02T00:40:54;31.36;28.32;44.59;;
71016;Laerm;60940;52.046;5.340;2023-07-02T00:41:04;31.86;28.46;45.41;;
71016;Laerm;60940;52.046;5.340;2023-07-02T00:41:15;32.18;27.63;45.24;;
71016;Laerm;60940;52.046;5.340;2023-07-02T00:41:25;32.39;28.41;46.76;;
71016;Laerm;60940;52.046;5.340;2023-07-02T00:41:36;31.68;28.73;46.91;;
71016;Laerm;60940;52.046;5.340;2023-07-02T00:41:46;31.53;28.55;44.29;;
71016;Laerm;60940;52.046;5.340;2023-07-02T00:42:00;31.54;28.89;49.15;;
71016;Laerm;60940;52.046;5.340;2023-07-02T00:42:10;31.59;28.45;47.26;;
71016;Laerm;60940;52.046;5.340;2023-07-02T00:42:21;30.85;28.79;42.15;;
71016;Laerm;60940;52.046;5.340;2023-07-02T00:42:33;32.02;28.84;47.58;;
71016;Laerm;60940;52.046;5.340;2023-07-02T00:42:43;31.32;29.31;39.80;;
71016;Laerm;60940;52.046;5.340;2023-07-02T00:42:53;31.86;28.58;46.43;;
71016;Laerm;60940;52.046;5.340;2023-07-02T00:43:03;32.05;28.82;45.76;;
71016;Laerm;60940;52.046;5.340;2023-07-02T00:43:14;30.86;29.01;38.36;;
71016;Laerm;60940;52.046;5.340;2023-07-02T00:43:24;30.90;28.21;41.28;;
71016;Laerm;60940;52.046;5.340;2023-07-02T00:43:34;30.82;28.01;43.47;;
71016;Laerm;60940;52.046;5.340;2023-07-02T00:43:44;30.98;27.69;44.76;;
71016;Laerm;60940;52.046;5.340;2023-07-02T00:43:54;39.37;28.07;60.99;;
71016;Laerm;60940;52.046;5.340;2023-07-02T00:44:05;31.39;28.42;43.22;;
71016;Laerm;60940;52.046;5.340;2023-07-02T00:44:15;33.30;29.00;51.43;;
71016;Laerm;60940;52.046;5.340;2023-07-02T00:44:25;32.31;28.91;46.01;;
71016;Laerm;60940;52.046;5.340;2023-07-02T00:44:35;33.20;28.51;48.97;;
71016;Laerm;60940;52.046;5.340;2023-07-02T00:44:50;30.68;27.82;42.21;;
71016;Laerm;60940;52.046;5.340;2023-07-02T00:45:02;32.07;28.09;49.63;;
71016;Laerm;60940;52.046;5.340;2023-07-02T00:45:12;30.82;27.76;43.28;;
71016;Laerm;60940;52.046;5.340;2023-07-02T00:45:23;32.24;27.84;50.52;;
71016;Laerm;60940;52.046;5.340;2023-07-02T00:45:36;31.60;27.87;48.46;;
71016;Laerm;60940;52.046;5.340;2023-07-02T00:45:47;30.91;27.67;44.57;;
71016;Laerm;60940;52.046;5.340;2023-07-02T00:45:58;30.89;28.38;46.74;;
71016;Laerm;60940;52.046;5.340;2023-07-02T00:46:08;30.46;28.01;41.27;;
71016;Laerm;60940;52.046;5.340;2023-07-02T00:46:19;32.27;27.91;47.92;;
71016;Laerm;60940;52.046;5.340;2023-07-02T00:46:32;31.19;28.33;44.10;;
71016;Laerm;60940;52.046;5.340;2023-07-02T00:46:43;31.79;28.50;46.45;;
71016;Laerm;60940;52.046;5.340;2023-07-02T00:46:53;31.73;28.44;46.89;;
71016;Laerm;60940;52.046;5.340;2023-07-02T00:47:03;32.86;28.45;49.87;;
71016;Laerm;60940;52.046;5.340;2023-07-02T00:47:13;31.17;28.66;47.28;;
71016;Laerm;60940;52.046;5.340;2023-07-02T00:47:23;31.68;29.11;43.53;;
71016;Laerm;60940;52.046;5.340;2023-07-02T00:47:34;33.72;28.36;53.99;;
71016;Laerm;60940;52.046;5.340;2023-07-02T00:47:44;36.90;28.18;58.58;;
71016;Laerm;60940;52.046;5.340;2023-07-02T00:47:55;31.74;28.81;49.06;;
71016;Laerm;60940;52.046;5.340;2023-07-02T00:48:05;36.64;29.19;57.67;;
71016;Laerm;60940;52.046;5.340;2023-07-02T00:48:15;32.85;29.40;45.06;;
71016;Laerm;60940;52.046;5.340;2023-07-02T00:48:26;32.38;28.24;46.94;;
71016;Laerm;60940;52.046;5.340;2023-07-02T00:48:37;33.63;28.52;47.17;;
71016;Laerm;60940;52.046;5.340;2023-07-02T00:48:58;31.97;28.51;49.30;;
71016;Laerm;60940;52.046;5.340;2023-07-02T00:49:08;32.33;27.94;50.34;;
71016;Laerm;60940;52.046;5.340;2023-07-02T00:49:19;31.33;28.21;43.87;;
71016;Laerm;60940;52.046;5.340;2023-07-02T00:49:29;30.41;28.00;39.11;;
71016;Laerm;60940;52.046;5.340;2023-07-02T00:49:39;31.35;28.23;45.62;;
71016;Laerm;60940;52.046;5.340;2023-07-02T00:49:50;31.19;27.96;48.20;;
71016;Laerm;60940;52.046;5.340;2023-07-02T00:50:01;30.62;28.13;41.90;;
71016;Laerm;60940;52.046;5.340;2023-07-02T00:50:11;31.56;28.21;44.02;;
71016;Laerm;60940;52.046;5.340;2023-07-02T00:50:22;32.37;28.21;47.35;;
71016;Laerm;60940;52.046;5.340;2023-07-02T00:50:32;31.00;28.61;43.63;;
71016;Laerm;60940;52.046;5.340;2023-07-02T00:50:43;31.10;28.61;43.03;;
71016;Laerm;60940;52.046;5.340;2023-07-02T00:50:53;32.71;28.55;50.17;;
71016;Laerm;60940;52.046;5.340;2023-07-02T00:51:03;33.01;28.44;50.24;;
71016;Laerm;60940;52.046;5.340;2023-07-02T00:51:14;31.27;28.54;46.11;;
71016;Laerm;60940;52.046;5.340;2023-07-02T00:51:25;31.31;28.28;45.41;;
71016;Laerm;60940;52.046;5.340;2023-07-02T00:51:36;33.12;28.19;52.01;;
71016;Laerm;60940;52.046;5.340;2023-07-02T00:51:47;32.46;28.41;49.95;;
71016;Laerm;60940;52.046;5.340;2023-07-02T00:51:57;30.88;28.21;45.80;;
71016;Laerm;60940;52.046;5.340;2023-07-02T00:52:07;30.51;28.45;39.90;;
71016;Laerm;60940;52.046;5.340;2023-07-02T00:52:18;30.23;28.00;43.85;;
71016;Laerm;60940;52.046;5.340;2023-07-02T00:52:30;30.84;27.76;45.05;;
71016;Laerm;60940;52.046;5.340;2023-07-02T00:52:40;30.36;27.97;44.34;;
71016;Laerm;60940;52.046;5.340;2023-07-02T00:52:50;30.50;27.86;45.19;;
71016;Laerm;60940;52.046;5.340;2023-07-02T00:53:00;31.05;27.99;42.15;;
71016;Laerm;60940;52.046;5.340;2023-07-02T00:53:10;31.56;28.44;43.73;;
71016;Laerm;60940;52.046;5.340;2023-07-02T00:53:21;31.33;28.39;44.74;;
71016;Laerm;60940;52.046;5.340;2023-07-02T00:53:31;35.01;28.59;55.22;;
71016;Laerm;60940;52.046;5.340;2023-07-02T00:53:45;34.03;29.73;46.88;;
71016;Laerm;60940;52.046;5.340;2023-07-02T00:53:56;35.66;28.53;48.13;;
71016;Laerm;60940;52.046;5.340;2023-07-02T00:54:07;37.06;29.27;43.92;;
71016;Laerm;60940;52.046;5.340;2023-07-02T00:54:18;32.52;28.45;49.79;;
71016;Laerm;60940;52.046;5.340;2023-07-02T00:54:28;29.94;28.04;38.95;;
71016;Laerm;60940;52.046;5.340;2023-07-02T00:54:39;29.99;27.96;40.78;;
71016;Laerm;60940;52.046;5.340;2023-07-02T00:54:50;31.45;27.53;47.54;;
71016;Laerm;60940;52.046;5.340;2023-07-02T00:55:01;30.88;27.79;44.21;;
71016;Laerm;60940;52.046;5.340;2023-07-02T00:55:11;32.33;28.08;52.59;;
71016;Laerm;60940;52.046;5.340;2023-07-02T00:55:21;31.16;28.09;45.27;;
71016;Laerm;60940;52.046;5.340;2023-07-02T00:55:32;30.48;27.98;41.93;;
71016;Laerm;60940;52.046;5.340;2023-07-02T00:55:42;30.05;28.05;40.87;;
71016;Laerm;60940;52.046;5.340;2023-07-02T00:55:52;31.76;28.29;50.71;;
71016;Laerm;60940;52.046;5.340;2023-07-02T00:56:02;30.95;27.81;47.54;;
71016;Laerm;60940;52.046;5.340;2023-07-02T00:56:13;31.28;27.72;46.28;;
71016;Laerm;60940;52.046;5.340;2023-07-02T00:56:24;32.46;28.12;49.95;;
71016;Laerm;60940;52.046;5.340;2023-07-02T00:56:34;31.81;28.08;48.06;;
71016;Laerm;60940;52.046;5.340;2023-07-02T00:56:44;30.64;27.96;44.38;;
71016;Laerm;60940;52.046;5.340;2023-07-02T00:56:56;31.16;28.01;44.67;;
71016;Laerm;60940;52.046;5.340;2023-07-02T00:57:06;30.45;28.23;41.93;;
71016;Laerm;60940;52.046;5.340;2023-07-02T00:57:16;30.27;27.46;42.02;;
71016;Laerm;60940;52.046;5.340;2023-07-02T00:57:27;32.21;27.95;48.74;;
71016;Laerm;60940;52.046;5.340;2023-07-02T00:57:39;32.25;27.93;52.89;;
71016;Laerm;60940;52.046;5.340;2023-07-02T00:57:50;30.47;27.78;43.36;;
71016;Laerm;60940;52.046;5.340;2023-07-02T00:58:01;31.19;27.07;47.55;;
71016;Laerm;60940;52.046;5.340;2023-07-02T00:58:11;31.48;27.42;51.59;;
71016;Laerm;60940;52.046;5.340;2023-07-02T00:58:25;29.95;27.71;41.08;;
71016;Laerm;60940;52.046;5.340;2023-07-02T00:58:37;32.51;27.50;50.86;;
71016;Laerm;60940;52.046;5.340;2023-07-02T00:58:49;32.36;27.78;51.10;;
71016;Laerm;60940;52.046;5.340;2023-07-02T00:59:00;31.64;27.60;48.01;;
71016;Laerm;60940;52.046;5.340;2023-07-02T00:59:11;30.50;27.67;44.19;;
71016;Laerm;60940;52.046;5.340;2023-07-02T00:59:21;30.50;27.64;45.18;;
71016;Laerm;60940;52.046;5.340;2023-07-02T00:59:31;37.79;27.96;60.24;;
71016;Laerm;60940;52.046;5.340;2023-07-02T00:59:44;30.91;27.97;44.50;;